Time;durP1;ratioP1;P1;durP2;ratioP2;P2;SDS_P1;SDS_P2;PMS_P1;PMS_P2;Temp;Humidity;BMP_temperature;BMP_pressure;BME280_temperature;BME280_humidity;BME280_pressure;Samples;Min_cycle;Max_cycle;Signal;HPM_P1;HPM_P2
2021/05/13 00:00:10;;;;;;;9.23;4.83;;;12.30;1.00;;;;;;5045010;28;20305;-48
2021/05/13 00:02:38;;;;;;;9.67;4.97;;;12.30;1.00;;;;;;5049409;28;20252;-49
2021/05/13 00:05:06;;;;;;;7.73;5.13;;;12.30;1.00;;;;;;5047627;28;20982;-49
2021/05/13 00:07:33;;;;;;;7.80;5.17;;;12.40;1.00;;;;;;5047288;28;20261;-49
2021/05/13 00:10:00;;;;;;;10.83;5.47;;;12.40;1.00;;;;;;5047745;28;20237;-49
2021/05/13 00:12:37;;;;;;;8.23;4.60;;;12.40;1.00;;;;;;5046174;28;20203;-49
2021/05/13 00:15:18;;;;;;;8.43;5.07;;;12.40;1.00;;;;;;5046347;28;20284;-49
2021/05/13 00:17:45;;;;;;;8.57;5.33;;;12.40;1.00;;;;;;5047911;28;20222;-48
2021/05/13 00:20:18;;;;;;;9.20;5.00;;;12.40;1.00;;;;;;5045587;28;20195;-49
2021/05/13 00:22:45;;;;;;;6.33;5.70;;;12.30;1.00;;;;;;5054954;28;20226;-49
2021/05/13 00:25:12;;;;;;;10.00;5.93;;;12.30;1.00;;;;;;5054309;28;20624;-48
2021/05/13 00:27:39;;;;;;;9.63;6.00;;;12.40;1.00;;;;;;5054894;28;20279;-49
2021/05/13 00:30:07;;;;;;;13.83;6.27;;;12.40;1.00;;;;;;5050704;28;20260;-49
2021/05/13 00:32:37;;;;;;;11.60;5.87;;;12.20;1.00;;;;;;5050862;28;20561;-49
2021/05/13 00:35:07;;;;;;;9.80;5.60;;;12.20;1.00;;;;;;5051795;28;20208;-50
2021/05/13 00:37:34;;;;;;;13.40;6.13;;;12.10;1.00;;;;;;5054436;28;20257;-50
2021/05/13 00:40:01;;;;;;;8.30;6.33;;;12.10;1.00;;;;;;5056135;28;20526;-50
2021/05/13 00:42:28;;;;;;;10.10;5.77;;;12.10;1.00;;;;;;5050390;28;20203;-49
2021/05/13 00:44:56;;;;;;;8.70;5.97;;;12.20;1.00;;;;;;5053922;28;20245;-49
2021/05/13 00:47:25;;;;;;;9.00;5.90;;;12.20;1.00;;;;;;5055802;28;20290;-49
2021/05/13 00:49:52;;;;;;;12.37;6.13;;;12.20;1.00;;;;;;5055797;28;20260;-49
2021/05/13 00:52:20;;;;;;;9.57;5.77;;;12.10;1.00;;;;;;5051971;28;20701;-50
2021/05/13 00:54:47;;;;;;;9.30;6.50;;;12.10;1.00;;;;;;5054348;28;20257;-49
2021/05/13 00:57:14;;;;;;;10.70;6.13;;;12.10;1.00;;;;;;5055192;28;20693;-49
2021/05/13 00:59:48;;;;;;;9.23;6.17;;;12.10;1.00;;;;;;5054063;28;20269;-49
2021/05/13 01:02:15;;;;;;;11.73;5.90;;;12.10;1.00;;;;;;5047929;28;20760;-49
2021/05/13 01:04:42;;;;;;;10.53;6.07;;;12.10;1.00;;;;;;5054982;28;20651;-49
2021/05/13 01:07:10;;;;;;;11.20;6.80;;;12.00;1.00;;;;;;5049116;28;20735;-49
2021/05/13 01:09:37;;;;;;;13.27;6.60;;;12.10;4.50;;;;;;5056089;28;20264;-49
2021/05/13 01:12:11;;;;;;;7.80;6.90;;;12.10;1.00;;;;;;5054431;28;20257;-49
2021/05/13 01:14:42;;;;;;;6.63;5.67;;;12.10;1.00;;;;;;5052142;28;20210;-49
2021/05/13 01:19:53;;;;;;;11.03;6.37;;;12.00;1.00;;;;;;5052623;28;20203;-49
2021/05/13 01:22:22;;;;;;;11.60;6.07;;;11.90;6.60;;;;;;5051215;28;20713;-49
2021/05/13 01:24:50;;;;;;;7.67;5.70;;;11.90;29.10;;;;;;5056606;28;20204;-49
2021/05/13 01:27:19;;;;;;;12.63;7.00;;;11.90;59.90;;;;;;5052026;28;20257;-49
2021/05/13 01:29:47;;;;;;;10.10;5.80;;;11.90;27.20;;;;;;5053352;28;20210;-49
2021/05/13 01:32:17;;;;;;;11.13;7.10;;;11.90;42.00;;;;;;5052685;28;20307;-48
2021/05/13 01:34:44;;;;;;;10.23;6.13;;;11.80;56.00;;;;;;5054246;28;20238;-49
2021/05/13 01:37:12;;;;;;;11.37;6.47;;;11.90;9.40;;;;;;5053879;28;20598;-49
2021/05/13 01:39:38;;;;;;;11.60;6.27;;;11.80;8.60;;;;;;5051633;28;20290;-49
2021/05/13 01:42:06;;;;;;;8.70;6.70;;;11.80;11.40;;;;;;5054147;28;20207;-49
2021/05/13 01:44:33;;;;;;;10.97;5.80;;;11.70;45.40;;;;;;5055356;28;20293;-49
2021/05/13 01:47:00;;;;;;;11.97;6.23;;;11.70;48.30;;;;;;5051496;28;20571;-49
2021/05/13 01:49:32;;;;;;;8.40;6.60;;;11.70;33.70;;;;;;5053506;28;20546;-49
2021/05/13 01:51:59;;;;;;;9.50;6.53;;;11.70;55.40;;;;;;5049329;28;20257;-49
2021/05/13 01:54:27;;;;;;;10.30;7.00;;;11.70;40.90;;;;;;5052698;28;20301;-49
2021/05/13 01:57:04;;;;;;;8.40;6.23;;;11.70;26.90;;;;;;5055336;28;20284;-49
2021/05/13 01:59:32;;;;;;;9.03;6.97;;;11.70;49.90;;;;;;5053736;28;20206;-49
2021/05/13 02:02:00;;;;;;;8.40;6.53;;;11.70;43.30;;;;;;5047590;28;20631;-49
2021/05/13 02:04:28;;;;;;;8.40;5.80;;;11.50;55.10;;;;;;5052415;28;20635;-48
2021/05/13 02:06:55;;;;;;;6.53;5.90;;;11.50;99.90;;;;;;5050726;28;20228;-49
2021/05/13 02:09:23;;;;;;;11.87;6.73;;;11.60;99.90;;;;;;5052808;28;20239;-49
2021/05/13 02:11:49;;;;;;;8.43;6.40;;;11.50;99.90;;;;;;5049803;28;20811;-49
2021/05/13 02:14:16;;;;;;;8.97;6.33;;;11.50;99.90;;;;;;5052700;28;20202;-49
2021/05/13 02:16:43;;;;;;;8.33;5.97;;;11.50;99.90;;;;;;5053166;28;20630;-49
2021/05/13 02:19:10;;;;;;;9.60;5.70;;;11.50;99.90;;;;;;5053066;28;20207;-49
2021/05/13 02:21:37;;;;;;;8.83;5.70;;;11.50;99.90;;;;;;5050236;28;20658;-48
2021/05/13 02:24:04;;;;;;;9.87;6.07;;;11.50;99.90;;;;;;5050456;28;20235;-49
2021/05/13 02:26:31;;;;;;;8.90;6.07;;;11.50;99.90;;;;;;5053118;28;20229;-50
2021/05/13 02:28:58;;;;;;;8.87;6.10;;;11.50;99.90;;;;;;5054188;28;20620;-48
2021/05/13 02:31:25;;;;;;;9.47;6.27;;;11.40;99.90;;;;;;5051494;28;20613;-49
2021/05/13 02:33:52;;;;;;;10.20;6.67;;;11.50;99.90;;;;;;5050560;28;20231;-49
2021/05/13 02:36:18;;;;;;;9.23;6.40;;;11.40;99.90;;;;;;5051049;28;20202;-48
2021/05/13 02:38:45;;;;;;;8.13;6.17;;;11.40;99.90;;;;;;5054006;28;20721;-49
2021/05/13 02:41:12;;;;;;;11.80;6.97;;;11.40;99.90;;;;;;5050262;28;20207;-49
2021/05/13 02:43:39;;;;;;;8.80;6.33;;;11.40;99.90;;;;;;5049691;28;20228;-49
2021/05/13 02:46:05;;;;;;;7.60;5.70;;;11.40;99.90;;;;;;5051265;28;20279;-49
2021/05/13 02:48:32;;;;;;;11.23;6.97;;;11.40;99.90;;;;;;5055091;28;20619;-48
2021/05/13 02:50:59;;;;;;;7.67;5.73;;;11.50;99.90;;;;;;5049166;28;20256;-49
2021/05/13 02:53:26;;;;;;;8.30;6.67;;;11.30;99.90;;;;;;5050544;28;20230;-48
2021/05/13 02:55:53;;;;;;;10.90;7.07;;;11.30;99.90;;;;;;5051707;28;20201;-48
2021/05/13 02:58:19;;;;;;;7.27;5.80;;;11.30;99.90;;;;;;5051907;28;21578;-49
2021/05/13 03:03:33;;;;;;;9.53;6.73;;;11.40;99.90;;;;;;5048844;28;20255;-48
2021/05/13 03:05:59;;;;;;;12.33;6.97;;;11.40;99.90;;;;;;5051894;28;20645;-49
2021/05/13 03:08:27;;;;;;;12.40;6.73;;;11.30;99.90;;;;;;5054226;28;20233;-49
2021/05/13 03:10:54;;;;;;;7.80;6.50;;;11.30;99.90;;;;;;5051611;28;20656;-49
2021/05/13 03:13:24;;;;;;;13.57;6.80;;;11.30;99.90;;;;;;5050550;28;20290;-49
2021/05/13 03:15:52;;;;;;;9.07;7.67;;;11.30;99.90;;;;;;5050955;28;20250;-48
2021/05/13 03:18:22;;;;;;;10.00;6.83;;;11.30;99.90;;;;;;5051797;28;20219;-49
2021/05/13 03:20:54;;;;;;;11.17;7.07;;;11.30;99.90;;;;;;5052721;28;20278;-49
2021/05/13 03:23:27;;;;;;;9.37;6.43;;;11.30;99.90;;;;;;5049377;28;20198;-49
2021/05/13 03:26:02;;;;;;;10.43;7.37;;;11.20;99.90;;;;;;5054881;28;20510;-49
2021/05/13 03:28:29;;;;;;;11.23;6.93;;;11.10;99.90;;;;;;5053154;28;20870;-49
2021/05/13 03:30:56;;;;;;;9.43;6.73;;;11.10;99.90;;;;;;5048936;28;20275;-49
2021/05/13 03:33:23;;;;;;;10.97;6.90;;;11.10;99.90;;;;;;5048322;28;20209;-49
2021/05/13 03:35:50;;;;;;;10.57;7.10;;;11.10;99.90;;;;;;5051690;28;20712;-49
2021/05/13 03:38:18;;;;;;;9.97;6.87;;;11.10;99.90;;;;;;5048623;28;20251;-49
2021/05/13 03:40:45;;;;;;;11.50;6.97;;;11.20;99.90;;;;;;5053600;28;20872;-49
2021/05/13 03:43:12;;;;;;;8.77;7.30;;;11.10;99.90;;;;;;5050118;28;20598;-49
2021/05/13 03:45:39;;;;;;;11.80;7.00;;;11.00;99.90;;;;;;5052582;28;20235;-49
2021/05/13 03:48:07;;;;;;;12.43;7.33;;;11.00;99.90;;;;;;5047556;28;20203;-49
2021/05/13 03:50:37;;;;;;;10.87;7.07;;;11.00;99.90;;;;;;5054550;28;20301;-49
2021/05/13 03:53:07;;;;;;;8.17;6.77;;;10.90;99.90;;;;;;5048271;28;20272;-49
2021/05/13 03:55:34;;;;;;;11.40;6.97;;;11.00;99.90;;;;;;5053975;28;20214;-49
2021/05/13 03:58:04;;;;;;;8.53;7.00;;;10.90;99.90;;;;;;5052555;28;20217;-49
2021/05/13 04:03:18;;;;;;;12.97;7.00;;;10.90;99.90;;;;;;5042430;28;20728;-49
2021/05/13 04:05:45;;;;;;;14.07;7.60;;;10.90;99.90;;;;;;5050800;28;20276;-49
2021/05/13 04:08:13;;;;;;;11.27;7.07;;;10.80;99.90;;;;;;5051450;28;20231;-49
2021/05/13 04:10:41;;;;;;;9.70;6.90;;;10.80;99.90;;;;;;5051987;28;20211;-49
2021/05/13 04:13:11;;;;;;;8.57;6.70;;;10.90;99.90;;;;;;5051067;28;20203;-48
2021/05/13 04:15:52;;;;;;;10.13;6.27;;;10.90;99.90;;;;;;5050703;28;20229;-49
2021/05/13 04:18:19;;;;;;;11.23;6.77;;;10.70;99.90;;;;;;5049713;28;20737;-48
2021/05/13 04:20:46;;;;;;;9.47;7.17;;;10.50;99.90;;;;;;5050934;28;20200;-49
2021/05/13 04:23:12;;;;;;;8.43;6.67;;;10.30;99.90;;;;;;5048276;28;20228;-49
2021/05/13 04:25:39;;;;;;;9.60;6.77;;;10.30;99.90;;;;;;5051032;28;20272;-49
2021/05/13 04:28:06;;;;;;;9.90;7.73;;;10.40;99.90;;;;;;5053176;28;20295;-49
2021/05/13 04:30:33;;;;;;;10.43;6.47;;;10.50;99.90;;;;;;5047856;28;20211;-48
2021/05/13 04:33:00;;;;;;;10.03;5.97;;;10.50;99.90;;;;;;5048946;28;20203;-49
2021/05/13 04:35:27;;;;;;;10.93;7.07;;;10.20;99.90;;;;;;5050702;28;20205;-49
2021/05/13 04:37:54;;;;;;;11.53;7.03;;;10.30;99.90;;;;;;5049446;28;20242;-49
2021/05/13 04:40:21;;;;;;;11.57;7.07;;;10.40;99.90;;;;;;5053746;28;20215;-48
2021/05/13 04:42:48;;;;;;;7.63;6.37;;;10.40;99.90;;;;;;5047786;28;20199;-49
2021/05/13 04:45:14;;;;;;;9.97;7.07;;;10.40;99.90;;;;;;5048685;28;20277;-49
2021/05/13 04:50:10;;;;;;;9.90;6.47;;;10.30;99.90;;;;;;5051027;28;20877;-49
2021/05/13 04:52:38;;;;;;;8.90;6.90;;;10.50;99.90;;;;;;5049246;28;20308;-49
2021/05/13 04:55:06;;;;;;;9.00;6.83;;;10.60;99.90;;;;;;5051054;28;20206;-49
2021/05/13 04:57:36;;;;;;;7.97;6.83;;;10.70;99.90;;;;;;5052728;28;20284;-49
2021/05/13 05:00:08;;;;;;;9.90;7.57;;;10.80;99.90;;;;;;5050066;28;20292;-50
2021/05/13 05:02:36;;;;;;;9.17;6.77;;;10.90;99.90;;;;;;5049470;28;20208;-49
2021/05/13 05:05:04;;;;;;;9.50;6.70;;;11.00;99.90;;;;;;5049113;28;20672;-49
2021/05/13 05:07:31;;;;;;;11.27;7.47;;;11.00;99.90;;;;;;5055276;28;20195;-49
2021/05/13 05:09:58;;;;;;;11.03;7.43;;;11.10;99.90;;;;;;5053930;28;20195;-49
2021/05/13 05:12:24;;;;;;;11.93;8.00;;;11.20;99.90;;;;;;5054626;28;20592;-49
2021/05/13 05:14:51;;;;;;;13.10;8.50;;;11.20;99.90;;;;;;5049001;28;20231;-49
2021/05/13 05:17:18;;;;;;;11.90;8.00;;;11.30;99.90;;;;;;5051921;28;20241;-49
2021/05/13 05:19:45;;;;;;;13.87;9.47;;;11.30;99.90;;;;;;5052780;28;20664;-48
2021/05/13 05:22:12;;;;;;;17.20;9.80;;;11.30;99.90;;;;;;5036019;28;20568;-49
2021/05/13 05:24:38;;;;;;;13.80;9.20;;;11.40;99.90;;;;;;5054115;28;20247;-49
2021/05/13 05:27:06;;;;;;;15.77;10.07;;;11.50;99.90;;;;;;5054894;28;20679;-49
2021/05/13 05:29:32;;;;;;;14.43;9.93;;;11.70;99.90;;;;;;5055734;28;20602;-49
2021/05/13 05:32:00;;;;;;;12.60;9.67;;;11.80;99.90;;;;;;5053125;28;20298;-48
2021/05/13 05:34:26;;;;;;;17.17;10.63;;;11.80;99.90;;;;;;5050603;28;20641;-49
2021/05/13 05:36:53;;;;;;;15.93;10.03;;;12.00;99.90;;;;;;5053280;28;20644;-49
2021/05/13 05:39:21;;;;;;;13.43;9.47;;;12.10;99.90;;;;;;5055929;28;20471;-49
2021/05/13 05:41:48;;;;;;;14.50;10.00;;;11.90;99.90;;;;;;5053142;28;21366;-49
2021/05/13 05:44:15;;;;;;;13.90;9.70;;;12.00;99.90;;;;;;5051333;28;20208;-50
2021/05/13 05:46:42;;;;;;;14.97;10.40;;;12.10;99.90;;;;;;5053046;28;20228;-49
2021/05/13 05:49:09;;;;;;;16.57;10.27;;;12.00;99.90;;;;;;5055134;28;20323;-49
2021/05/13 05:51:35;;;;;;;13.57;11.43;;;12.10;99.90;;;;;;5053091;28;20315;-49
2021/05/13 05:54:03;;;;;;;15.97;10.53;;;12.00;99.90;;;;;;5052157;28;20843;-49
2021/05/13 05:56:30;;;;;;;18.97;10.83;;;12.00;99.90;;;;;;5053956;28;20272;-49
2021/05/13 05:58:57;;;;;;;14.37;10.73;;;12.00;99.90;;;;;;5056437;28;20235;-49
2021/05/13 06:01:24;;;;;;;15.70;12.43;;;12.30;99.90;;;;;;5050903;28;20749;-49
2021/05/13 06:03:51;;;;;;;15.73;12.17;;;12.20;99.90;;;;;;5049372;28;20224;-48
2021/05/13 06:06:19;;;;;;;15.03;11.90;;;12.20;99.90;;;;;;5054528;28;20196;-49
2021/05/13 06:08:47;;;;;;;18.43;13.23;;;12.10;99.90;;;;;;5054669;28;20264;-49
2021/05/13 06:11:14;;;;;;;15.37;11.97;;;12.30;99.90;;;;;;5055975;28;20256;-49
2021/05/13 06:13:41;;;;;;;21.07;13.97;;;12.50;99.90;;;;;;5052754;28;20288;-50
2021/05/13 06:16:10;;;;;;;18.30;14.00;;;12.60;74.10;;;;;;5051194;28;20290;-50
2021/05/13 06:18:58;;;;;;;25.30;14.77;;;12.60;95.00;;;;;;5053454;28;20233;-49
2021/05/13 06:21:26;;;;;;;18.27;13.47;;;12.80;29.30;;;;;;5054307;28;20714;-50
2021/05/13 06:23:59;;;;;;;19.60;13.53;;;12.90;1.00;;;;;;5049862;28;20200;-49
2021/05/13 06:26:28;;;;;;;21.97;14.47;;;13.00;1.00;;;;;;5051984;28;20522;-49
2021/05/13 06:29:02;;;;;;;18.97;14.13;;;13.10;1.00;;;;;;5053243;28;20291;-48
2021/05/13 06:31:29;;;;;;;19.77;13.60;;;12.90;1.00;;;;;;5049787;28;20270;-49
2021/05/13 06:33:57;;;;;;;21.60;14.20;;;13.30;1.00;;;;;;5053303;28;20295;-49
2021/05/13 06:36:25;;;;;;;23.93;15.57;;;13.50;1.00;;;;;;5052952;28;20236;-49
2021/05/13 06:38:52;;;;;;;20.60;15.30;;;13.60;99.90;;;;;;5051743;28;20267;-49
2021/05/13 06:41:19;;;;;;;16.30;13.63;;;13.60;1.00;;;;;;5051903;28;20287;-49
2021/05/13 06:43:46;;;;;;;23.90;15.63;;;13.70;1.00;;;;;;5049340;28;20745;-49
2021/05/13 06:46:13;;;;;;;18.47;13.97;;;14.00;99.90;;;;;;5050288;28;20295;-48
2021/05/13 06:48:40;;;;;;;19.43;14.83;;;14.30;1.00;;;;;;5051065;28;20327;-49
2021/05/13 06:51:07;;;;;;;21.53;15.70;;;14.50;99.90;;;;;;5045661;28;20202;-50
2021/05/13 06:53:33;;;;;;;21.10;14.80;;;14.70;1.00;;;;;;5049375;28;20700;-48
2021/05/13 06:56:00;;;;;;;19.13;14.67;;;14.90;99.90;;;;;;5052458;28;20224;-48
2021/05/13 06:58:27;;;;;;;23.03;14.70;;;15.10;1.00;;;;;;5059903;28;20359;-48
2021/05/13 07:00:54;;;;;;;17.83;13.67;;;15.30;1.00;;;;;;5049142;28;20239;-48
2021/05/13 07:03:21;;;;;;;16.60;13.70;;;15.40;1.00;;;;;;5047978;28;20288;-48
2021/05/13 07:05:48;;;;;;;18.57;14.63;;;15.80;1.00;;;;;;5051008;28;20202;-49
2021/05/13 07:08:15;;;;;;;17.10;14.53;;;15.90;1.00;;;;;;5050912;28;20234;-48
2021/05/13 07:10:41;;;;;;;19.33;13.03;;;15.90;99.90;;;;;;5052692;28;20269;-48
2021/05/13 07:13:08;;;;;;;18.50;13.47;;;16.10;1.00;;;;;;5049258;28;21627;-48
2021/05/13 07:15:36;;;;;;;19.17;14.87;;;16.50;1.00;;;;;;5051405;28;20203;-49
2021/05/13 07:18:03;;;;;;;22.03;15.03;;;16.60;2.00;;;;;;5054842;28;20628;-48
2021/05/13 07:20:32;;;;;;;17.20;13.80;;;16.60;1.00;;;;;;5054103;28;20212;-49
2021/05/13 07:22:59;;;;;;;18.73;15.20;;;16.50;1.00;;;;;;5050679;28;20324;-48
2021/05/13 07:25:26;;;;;;;19.70;13.47;;;16.40;1.00;;;;;;5049806;28;20296;-48
2021/05/13 07:27:53;;;;;;;17.00;13.30;;;16.50;1.00;;;;;;5050904;28;20227;-49
2021/05/13 07:30:20;;;;;;;15.50;13.17;;;16.80;99.90;;;;;;5050957;28;20562;-49
2021/05/13 07:32:48;;;;;;;18.43;13.57;;;16.80;99.90;;;;;;5053785;28;20598;-50
2021/05/13 07:35:17;;;;;;;16.77;13.73;;;16.90;99.90;;;;;;5050566;28;20259;-49
2021/05/13 07:37:44;;;;;;;19.53;14.70;;;16.90;99.90;;;;;;5047712;28;20231;-49
2021/05/13 07:40:12;;;;;;;16.33;12.83;;;17.20;99.90;;;;;;5050172;28;20574;-49
2021/05/13 07:42:40;;;;;;;19.57;13.97;;;17.20;99.90;;;;;;5045739;28;20201;-49
2021/05/13 07:45:07;;;;;;;18.53;13.93;;;17.50;99.90;;;;;;5049088;28;20604;-49
2021/05/13 07:47:37;;;;;;;16.03;13.07;;;17.90;99.90;;;;;;5048736;28;20236;-49
2021/05/13 07:50:09;;;;;;;16.53;13.63;;;17.70;99.90;;;;;;5048200;28;20645;-50
2021/05/13 07:52:36;;;;;;;18.17;14.13;;;17.90;1.00;;;;;;5045553;28;20218;-49
2021/05/13 07:55:05;;;;;;;15.83;13.57;;;17.90;1.00;;;;;;5045399;28;20283;-50
2021/05/13 07:57:31;;;;;;;17.97;13.40;;;17.90;1.00;;;;;;5048888;28;20333;-50
2021/05/13 07:59:58;;;;;;;15.90;13.30;;;17.90;1.00;;;;;;5048109;28;20306;-49
2021/05/13 08:02:25;;;;;;;16.90;13.70;;;18.00;1.00;;;;;;5049754;28;20260;-49
2021/05/13 08:04:52;;;;;;;15.93;13.50;;;18.20;1.00;;;;;;5048648;28;20199;-49
2021/05/13 08:07:21;;;;;;;15.23;13.13;;;18.40;1.00;;;;;;5049996;28;20247;-50
2021/05/13 08:09:49;;;;;;;16.90;12.87;;;18.40;1.00;;;;;;5050335;28;20305;-49
2021/05/13 08:12:16;;;;;;;16.43;12.17;;;18.50;1.00;;;;;;5045563;28;20260;-49
2021/05/13 08:14:44;;;;;;;15.60;12.13;;;18.70;1.00;;;;;;5048970;28;20260;-49
2021/05/13 08:17:12;;;;;;;14.87;11.80;;;18.70;1.00;;;;;;5045871;28;20659;-50
2021/05/13 08:19:39;;;;;;;17.33;12.53;;;18.70;1.00;;;;;;5039537;28;20220;-49
2021/05/13 08:22:07;;;;;;;16.57;12.57;;;18.70;1.00;;;;;;5045849;28;20527;-49
2021/05/13 08:24:34;;;;;;;12.27;10.73;;;19.20;1.00;;;;;;5045221;28;20210;-50
2021/05/13 08:27:02;;;;;;;13.67;10.33;;;19.60;1.00;;;;;;5050745;28;20230;-49
2021/05/13 08:29:30;;;;;;;11.57;9.90;;;19.90;1.00;;;;;;5046062;28;20213;-49
2021/05/13 08:31:58;;;;;;;15.77;11.73;;;20.30;99.90;;;;;;5045251;28;20928;-50
2021/05/13 08:34:25;;;;;;;13.27;10.80;;;20.30;99.90;;;;;;5044300;28;20213;-49
2021/05/13 08:36:54;;;;;;;11.80;9.43;;;20.20;99.90;;;;;;5046163;28;20551;-49
2021/05/13 08:39:23;;;;;;;13.03;8.70;;;20.10;99.90;;;;;;5044486;28;20942;-49
2021/05/13 08:41:50;;;;;;;10.87;8.80;;;19.40;99.90;;;;;;5047820;28;20903;-49
2021/05/13 08:44:18;;;;;;;14.27;9.77;;;19.50;99.90;;;;;;5052464;28;20773;-49
2021/05/13 08:46:45;;;;;;;13.13;10.40;;;19.60;99.90;;;;;;5051071;28;20830;-48
2021/05/13 08:49:12;;;;;;;11.53;10.17;;;19.60;99.90;;;;;;5050762;28;20600;-49
2021/05/13 08:51:39;;;;;;;11.73;9.17;;;19.90;99.90;;;;;;5053954;28;20269;-49
2021/05/13 08:54:07;;;;;;;10.13;8.70;;;20.00;99.90;;;;;;5049434;28;20294;-49
2021/05/13 08:56:34;;;;;;;10.77;7.80;;;20.10;99.90;;;;;;5052005;28;20639;-49
2021/05/13 08:59:04;;;;;;;10.43;7.67;;;20.20;99.90;;;;;;5052800;28;20211;-49
2021/05/13 09:01:33;;;;;;;11.37;8.37;;;20.20;99.90;;;;;;5051897;28;20191;-50
2021/05/13 09:04:05;;;;;;;10.33;7.80;;;20.40;99.90;;;;;;5050851;28;20235;-50
2021/05/13 09:06:35;;;;;;;7.83;6.70;;;20.50;99.90;;;;;;5049743;28;20639;-49
2021/05/13 09:09:11;;;;;;;9.23;6.77;;;20.60;99.90;;;;;;5052511;28;20867;-50
2021/05/13 09:12:09;;;;;;;6.27;5.40;;;20.70;99.90;;;;;;5049717;28;20204;-50
2021/05/13 09:14:36;;;;;;;7.67;6.23;;;20.60;99.90;;;;;;5035004;28;20206;-49
2021/05/13 09:17:03;;;;;;;8.50;6.37;;;20.70;99.90;;;;;;5045656;28;20214;-50
2021/05/13 09:19:34;;;;;;;11.47;7.03;;;20.70;99.90;;;;;;5049135;28;20243;-50
2021/05/13 09:22:07;;;;;;;7.40;5.47;;;20.80;99.90;;;;;;5047726;28;20200;-50
2021/05/13 09:24:58;;;;;;;6.90;4.63;;;20.60;99.90;;;;;;5061566;28;20304;-50
2021/05/13 09:27:41;;;;;;;8.07;4.70;;;20.80;99.90;;;;;;5049273;28;20319;-49
2021/05/13 09:30:18;;;;;;;5.80;4.63;;;21.00;99.90;;;;;;5045082;28;20284;-49
2021/05/13 09:32:46;;;;;;;6.13;4.20;;;20.80;99.90;;;;;;5048783;28;20293;-49
2021/05/13 09:35:13;;;;;;;6.77;4.53;;;20.70;99.90;;;;;;5048951;28;20693;-49
2021/05/13 09:37:43;;;;;;;5.90;3.40;;;20.70;99.90;;;;;;5048624;28;20230;-50
2021/05/13 09:40:12;;;;;;;6.57;4.10;;;20.60;95.10;;;;;;5048810;28;20281;-50
2021/05/13 09:42:39;;;;;;;5.83;4.30;;;20.50;95.60;;;;;;5048600;28;20686;-50
2021/05/13 09:45:08;;;;;;;8.20;4.67;;;20.10;99.60;;;;;;5047128;28;20298;-49
2021/05/13 09:47:37;;;;;;;6.20;4.40;;;20.30;99.90;;;;;;5049511;28;20638;-48
2021/05/13 09:50:07;;;;;;;6.53;4.33;;;20.30;99.90;;;;;;5046148;28;20231;-49
2021/05/13 09:52:43;;;;;;;4.27;3.50;;;20.40;97.60;;;;;;5046202;28;20277;-49
2021/05/13 09:55:31;;;;;;;6.27;3.10;;;20.50;91.90;;;;;;5054526;28;20724;-49
2021/05/13 09:58:06;;;;;;;3.27;2.23;;;20.30;69.90;;;;;;5052860;28;20251;-49
2021/05/13 10:00:39;;;;;;;4.73;2.30;;;20.60;59.10;;;;;;5052400;28;20874;-50
2021/05/13 10:03:10;;;;;;;3.63;2.27;;;21.00;55.80;;;;;;5050160;28;20607;-49
2021/05/13 10:05:39;;;;;;;4.10;1.80;;;20.90;36.80;;;;;;5050416;28;20624;-49
2021/05/13 10:08:06;;;;;;;3.60;2.37;;;21.00;28.80;;;;;;5048989;28;20281;-49
2021/05/13 10:10:36;;;;;;;6.37;3.03;;;21.00;24.70;;;;;;5045751;28;20203;-49
2021/05/13 10:13:04;;;;;;;7.70;3.00;;;21.00;22.30;;;;;;5046140;28;20256;-49
2021/05/13 10:15:32;;;;;;;6.53;2.70;;;20.50;26.20;;;;;;5045538;28;20196;-50
2021/05/13 10:18:01;;;;;;;3.03;2.53;;;20.70;23.80;;;;;;5042140;28;20521;-49
2021/05/13 10:20:31;;;;;;;5.90;3.30;;;20.70;28.40;;;;;;5046358;28;20577;-49
2021/05/13 10:22:59;;;;;;;3.23;2.77;;;20.40;23.90;;;;;;5047410;28;20259;-49
2021/05/13 10:25:29;;;;;;;6.23;3.00;;;20.40;25.80;;;;;;5041710;28;20265;-49
2021/05/13 10:28:01;;;;;;;4.47;2.70;;;19.70;32.90;;;;;;5045401;28;20385;-49
2021/05/13 10:30:36;;;;;;;6.13;3.27;;;20.30;51.10;;;;;;5046686;28;20727;-49
2021/05/13 10:33:14;;;;;;;3.30;2.53;;;20.80;31.60;;;;;;5046910;28;20921;-49
2021/05/13 10:36:04;;;;;;;5.80;2.80;;;20.90;30.20;;;;;;5047848;28;20561;-49
2021/05/13 10:39:05;;;;;;;5.17;3.10;;;20.60;17.30;;;;;;5044381;28;20269;-49
2021/05/13 10:41:37;;;;;;;3.27;2.40;;;20.40;18.10;;;;;;5044734;28;20287;-49
2021/05/13 10:44:07;;;;;;;6.43;2.93;;;20.60;30.10;;;;;;5043274;28;21202;-49
2021/05/13 10:46:33;;;;;;;4.00;2.87;;;20.60;20.20;;;;;;5044246;28;20636;-49
2021/05/13 10:49:27;;;;;;;7.40;2.83;;;20.20;14.70;;;;;;5045701;28;20590;-50
2021/05/13 10:52:17;;;;;;;5.13;2.67;;;20.20;16.40;;;;;;5043257;28;20298;-50
2021/05/13 10:54:46;;;;;;;6.77;3.47;;;20.10;21.40;;;;;;5048493;28;20604;-50
2021/05/13 10:57:20;;;;;;;6.43;3.00;;;19.90;21.80;;;;;;5051115;28;20235;-49
2021/05/13 11:00:08;;;;;;;5.40;3.03;;;20.00;27.00;;;;;;5049545;28;20215;-50
2021/05/13 11:02:46;;;;;;;4.23;2.73;;;20.20;27.90;;;;;;5050237;28;20200;-50
2021/05/13 11:05:28;;;;;;;5.23;2.70;;;20.30;23.50;;;;;;5047924;28;20214;-49
2021/05/13 11:08:03;;;;;;;5.13;3.00;;;20.80;29.90;;;;;;5053421;28;20622;-49
2021/05/13 11:11:05;;;;;;;5.50;3.10;;;21.00;18.20;;;;;;5047462;28;20256;-49
2021/05/13 11:13:40;;;;;;;8.13;2.97;;;21.60;24.50;;;;;;4972530;28;20252;-50
2021/05/13 11:16:26;;;;;;;5.70;3.03;;;21.60;18.00;;;;;;4976799;28;20305;-49
2021/05/13 11:19:14;;;;;;;6.37;3.47;;;21.60;33.00;;;;;;4976468;28;20329;-50
2021/05/13 11:22:06;;;;;;;4.70;3.33;;;21.70;11.30;;;;;;4971115;28;20727;-50
2021/05/13 11:24:33;;;;;;;8.73;3.00;;;21.10;10.20;;;;;;4974052;28;20300;-50
2021/05/13 11:27:00;;;;;;;4.00;3.00;;;21.00;10.80;;;;;;4974257;28;20666;-50
2021/05/13 11:29:26;;;;;;;6.83;3.13;;;20.70;10.80;;;;;;4974443;28;20234;-50
2021/05/13 11:31:54;;;;;;;6.83;3.63;;;20.80;9.80;;;;;;4974424;28;20517;-50
2021/05/13 11:34:21;;;;;;;5.53;2.80;;;20.50;12.90;;;;;;4972882;28;20659;-50
2021/05/13 11:36:48;;;;;;;7.43;3.73;;;20.80;14.30;;;;;;4961459;28;20793;-49
2021/05/13 11:39:17;;;;;;;3.70;2.77;;;21.20;19.00;;;;;;4975126;28;20229;-49
2021/05/13 11:41:45;;;;;;;5.53;3.17;;;21.30;14.70;;;;;;4975398;28;20328;-50
2021/05/13 11:44:13;;;;;;;4.47;2.77;;;21.40;10.20;;;;;;4976581;28;20240;-50
2021/05/13 11:46:40;;;;;;;3.10;2.73;;;21.50;10.20;;;;;;4962216;28;20492;-50
2021/05/13 11:49:07;;;;;;;5.50;3.00;;;21.70;9.10;;;;;;5050081;28;20236;-50
2021/05/13 11:51:36;;;;;;;6.20;3.30;;;21.00;6.40;;;;;;5047335;28;20224;-53
2021/05/13 11:54:05;;;;;;;6.07;3.60;;;21.00;10.30;;;;;;5043913;28;20211;-50
2021/05/13 11:56:35;;;;;;;3.90;3.20;;;20.70;8.00;;;;;;5047243;28;21585;-50
2021/05/13 11:59:04;;;;;;;4.40;3.50;;;21.10;9.90;;;;;;5048218;28;20200;-50
2021/05/13 12:01:41;;;;;;;5.53;3.20;;;20.30;4.00;;;;;;5046523;28;20558;-49
2021/05/13 12:04:15;;;;;;;3.57;3.00;;;20.50;8.70;;;;;;5045041;28;20203;-50
2021/05/13 12:06:50;;;;;;;4.63;2.93;;;20.40;7.50;;;;;;5048602;28;20253;-50
2021/05/13 12:09:19;;;;;;;5.03;3.63;;;20.20;12.70;;;;;;5050389;28;20203;-49
2021/05/13 12:11:47;;;;;;;5.40;3.20;;;20.30;10.00;;;;;;5049132;28;20301;-49
2021/05/13 12:14:26;;;;;;;9.40;3.73;;;20.30;15.70;;;;;;5033829;28;20286;-50
2021/05/13 12:17:01;;;;;;;5.77;3.20;;;20.10;13.00;;;;;;5050396;28;20196;-49
2021/05/13 12:19:32;;;;;;;4.07;2.87;;;20.30;17.70;;;;;;5048430;28;20679;-50
2021/05/13 12:22:04;;;;;;;3.70;2.57;;;20.40;12.50;;;;;;5050398;28;20199;-49
2021/05/13 12:24:41;;;;;;;3.53;2.93;;;20.30;7.40;;;;;;5053246;28;20655;-49
2021/05/13 12:27:15;;;;;;;4.43;2.90;;;20.00;9.20;;;;;;5051698;28;20394;-50
2021/05/13 12:29:45;;;;;;;5.20;2.67;;;19.80;9.20;;;;;;5046886;28;20214;-49
2021/05/13 12:32:31;;;;;;;6.67;2.70;;;20.20;10.00;;;;;;5045282;28;20554;-50
2021/05/13 12:34:58;;;;;;;4.13;2.70;;;20.00;8.20;;;;;;5046135;28;20350;-50
2021/05/13 12:37:25;;;;;;;3.93;2.60;;;19.70;9.10;;;;;;5044196;28;20261;-50
2021/05/13 12:39:54;;;;;;;4.53;2.97;;;20.00;9.90;;;;;;5045168;28;20227;-50
2021/05/13 12:42:23;;;;;;;5.27;2.70;;;20.30;10.80;;;;;;5048193;28;20218;-50
2021/05/13 12:44:50;;;;;;;3.97;2.27;;;20.10;8.20;;;;;;5047470;28;20199;-49
2021/05/13 12:47:25;;;;;;;2.90;2.60;;;20.20;9.90;;;;;;5046901;28;20207;-49
2021/05/13 12:50:01;;;;;;;5.10;3.07;;;20.30;15.00;;;;;;5051402;28;20319;-49
2021/05/13 12:52:28;;;;;;;4.10;2.70;;;20.30;9.50;;;;;;5043005;28;20217;-52
2021/05/13 12:55:13;;;;;;;8.90;5.80;;;20.00;6.40;;;;;;5044692;28;20241;-51
2021/05/13 12:57:42;;;;;;;5.43;2.83;;;20.20;9.20;;;;;;5047825;28;20207;-49
2021/05/13 13:00:10;;;;;;;5.13;3.43;;;20.40;10.10;;;;;;5050921;28;20239;-49
2021/05/13 13:02:37;;;;;;;5.77;3.83;;;20.30;8.80;;;;;;5052042;28;20999;-48
2021/05/13 13:05:07;;;;;;;5.00;3.10;;;20.20;7.70;;;;;;5045549;28;20276;-49